sensor_id;sensor_type;location;lat;lon;timestamp;P1;durP1;ratioP1;P2;durP2;ratioP2
73919;SDS011;62266;53.348;-1.496;2023-03-01T00:01:24;9.38;;;4.10;;
73919;SDS011;62266;53.348;-1.496;2023-03-01T00:03:51;9.30;;;4.47;;
73919;SDS011;62266;53.348;-1.496;2023-03-01T00:06:17;12.30;;;5.03;;
73919;SDS011;62266;53.348;-1.496;2023-03-01T00:08:43;11.23;;;4.87;;
73919;SDS011;62266;53.348;-1.496;2023-03-01T00:11:13;10.82;;;4.95;;
73919;SDS011;62266;53.348;-1.496;2023-03-01T00:13:52;11.73;;;5.00;;
73919;SDS011;62266;53.348;-1.496;2023-03-01T00:16:21;11.55;;;5.70;;
73919;SDS011;62266;53.348;-1.496;2023-03-01T00:18:47;10.07;;;5.57;;
73919;SDS011;62266;53.348;-1.496;2023-03-01T00:21:13;13.48;;;5.78;;
73919;SDS011;62266;53.348;-1.496;2023-03-01T00:23:38;10.37;;;4.97;;
73919;SDS011;62266;53.348;-1.496;2023-03-01T00:26:08;11.05;;;4.53;;
73919;SDS011;62266;53.348;-1.496;2023-03-01T00:28:35;10.53;;;4.90;;
73919;SDS011;62266;53.348;-1.496;2023-03-01T00:31:05;9.27;;;4.55;;
73919;SDS011;62266;53.348;-1.496;2023-03-01T00:33:31;7.65;;;4.00;;
73919;SDS011;62266;53.348;-1.496;2023-03-01T00:36:00;10.97;;;3.90;;
73919;SDS011;62266;53.348;-1.496;2023-03-01T00:38:26;8.73;;;3.67;;
73919;SDS011;62266;53.348;-1.496;2023-03-01T00:40:51;10.30;;;3.63;;
73919;SDS011;62266;53.348;-1.496;2023-03-01T00:43:17;8.13;;;3.67;;
73919;SDS011;62266;53.348;-1.496;2023-03-01T00:45:43;7.43;;;3.47;;
73919;SDS011;62266;53.348;-1.496;2023-03-01T00:48:09;10.18;;;4.47;;
73919;SDS011;62266;53.348;-1.496;2023-03-01T00:54:07;10.23;;;4.25;;
73919;SDS011;62266;53.348;-1.496;2023-03-01T00:56:33;9.00;;;4.60;;
73919;SDS011;62266;53.348;-1.496;2023-03-01T00:58:59;10.73;;;4.53;;
73919;SDS011;62266;53.348;-1.496;2023-03-01T01:01:25;7.37;;;4.20;;
73919;SDS011;62266;53.348;-1.496;2023-03-01T01:03:55;7.53;;;3.65;;
73919;SDS011;62266;53.348;-1.496;2023-03-01T01:06:25;7.22;;;3.72;;
73919;SDS011;62266;53.348;-1.496;2023-03-01T01:08:55;7.88;;;3.25;;
73919;SDS011;62266;53.348;-1.496;2023-03-01T01:11:22;6.78;;;3.50;;
73919;SDS011;62266;53.348;-1.496;2023-03-01T01:13:48;6.97;;;3.00;;
73919;SDS011;62266;53.348;-1.496;2023-03-01T01:16:39;7.97;;;2.83;;
73919;SDS011;62266;53.348;-1.496;2023-03-01T01:19:27;7.85;;;3.08;;
73919;SDS011;62266;53.348;-1.496;2023-03-01T01:21:53;6.90;;;2.97;;
73919;SDS011;62266;53.348;-1.496;2023-03-01T01:24:18;7.85;;;3.50;;
73919;SDS011;62266;53.348;-1.496;2023-03-01T01:26:44;12.03;;;4.10;;
73919;SDS011;62266;53.348;-1.496;2023-03-01T01:29:10;10.38;;;4.18;;
73919;SDS011;62266;53.348;-1.496;2023-03-01T01:31:36;9.13;;;4.68;;
73919;SDS011;62266;53.348;-1.496;2023-03-01T01:34:04;11.93;;;4.90;;
73919;SDS011;62266;53.348;-1.496;2023-03-01T01:36:32;11.13;;;4.50;;
73919;SDS011;62266;53.348;-1.496;2023-03-01T01:38:58;10.90;;;4.32;;
73919;SDS011;62266;53.348;-1.496;2023-03-01T01:41:25;10.90;;;4.65;;
73919;SDS011;62266;53.348;-1.496;2023-03-01T01:44:12;9.85;;;5.07;;
73919;SDS011;62266;53.348;-1.496;2023-03-01T01:47:17;11.55;;;5.53;;
73919;SDS011;62266;53.348;-1.496;2023-03-01T01:50:09;9.13;;;4.17;;
73919;SDS011;62266;53.348;-1.496;2023-03-01T01:52:41;10.15;;;4.80;;
73919;SDS011;62266;53.348;-1.496;2023-03-01T01:55:08;11.13;;;5.20;;
73919;SDS011;62266;53.348;-1.496;2023-03-01T01:57:37;11.40;;;4.60;;
73919;SDS011;62266;53.348;-1.496;2023-03-01T02:00:10;11.32;;;4.75;;
73919;SDS011;62266;53.348;-1.496;2023-03-01T02:02:39;15.23;;;5.20;;
73919;SDS011;62266;53.348;-1.496;2023-03-01T02:07:58;8.68;;;3.88;;
73919;SDS011;62266;53.348;-1.496;2023-03-01T02:10:24;8.70;;;4.27;;
73919;SDS011;62266;53.348;-1.496;2023-03-01T02:12:50;10.27;;;4.60;;
73919;SDS011;62266;53.348;-1.496;2023-03-01T02:15:17;8.38;;;4.03;;
73919;SDS011;62266;53.348;-1.496;2023-03-01T02:17:42;8.93;;;3.73;;
73919;SDS011;62266;53.348;-1.496;2023-03-01T02:20:29;8.57;;;3.70;;
73919;SDS011;62266;53.348;-1.496;2023-03-01T02:23:00;10.47;;;4.03;;
73919;SDS011;62266;53.348;-1.496;2023-03-01T02:30:55;7.10;;;3.60;;
73919;SDS011;62266;53.348;-1.496;2023-03-01T02:33:40;7.30;;;3.47;;
73919;SDS011;62266;53.348;-1.496;2023-03-01T02:36:08;8.88;;;3.50;;
73919;SDS011;62266;53.348;-1.496;2023-03-01T02:38:38;9.65;;;3.65;;
73919;SDS011;62266;53.348;-1.496;2023-03-01T02:41:04;11.10;;;4.00;;
73919;SDS011;62266;53.348;-1.496;2023-03-01T02:43:31;9.18;;;4.00;;
73919;SDS011;62266;53.348;-1.496;2023-03-01T02:45:59;7.70;;;4.23;;
73919;SDS011;62266;53.348;-1.496;2023-03-01T02:48:37;9.15;;;4.05;;
73919;SDS011;62266;53.348;-1.496;2023-03-01T02:51:07;8.18;;;4.05;;
73919;SDS011;62266;53.348;-1.496;2023-03-01T02:53:37;8.88;;;3.60;;
73919;SDS011;62266;53.348;-1.496;2023-03-01T02:56:16;12.07;;;4.07;;
73919;SDS011;62266;53.348;-1.496;2023-03-01T02:58:41;10.10;;;4.13;;
73919;SDS011;62266;53.348;-1.496;2023-03-01T03:01:10;8.45;;;3.78;;
73919;SDS011;62266;53.348;-1.496;2023-03-01T03:03:36;9.75;;;4.28;;
73919;SDS011;62266;53.348;-1.496;2023-03-01T03:06:02;8.87;;;4.40;;
73919;SDS011;62266;53.348;-1.496;2023-03-01T03:08:27;9.83;;;4.27;;
73919;SDS011;62266;53.348;-1.496;2023-03-01T03:10:53;9.50;;;3.83;;
73919;SDS011;62266;53.348;-1.496;2023-03-01T03:13:19;11.23;;;3.80;;
73919;SDS011;62266;53.348;-1.496;2023-03-01T03:15:44;8.53;;;3.80;;
73919;SDS011;62266;53.348;-1.496;2023-03-01T03:18:11;8.82;;;3.78;;
73919;SDS011;62266;53.348;-1.496;2023-03-01T03:20:39;7.18;;;3.50;;
73919;SDS011;62266;53.348;-1.496;2023-03-01T03:23:06;7.97;;;4.10;;
73919;SDS011;62266;53.348;-1.496;2023-03-01T03:25:31;8.48;;;4.32;;
73919;SDS011;62266;53.348;-1.496;2023-03-01T03:27:57;8.07;;;4.07;;
73919;SDS011;62266;53.348;-1.496;2023-03-01T03:30:31;8.10;;;4.13;;
73919;SDS011;62266;53.348;-1.496;2023-03-01T03:32:57;8.88;;;4.07;;
73919;SDS011;62266;53.348;-1.496;2023-03-01T03:35:24;6.17;;;3.30;;
73919;SDS011;62266;53.348;-1.496;2023-03-01T03:37:58;6.07;;;3.42;;
73919;SDS011;62266;53.348;-1.496;2023-03-01T03:43:01;7.75;;;3.00;;
73919;SDS011;62266;53.348;-1.496;2023-03-01T03:45:27;6.47;;;3.15;;
73919;SDS011;62266;53.348;-1.496;2023-03-01T03:47:53;6.37;;;3.00;;
73919;SDS011;62266;53.348;-1.496;2023-03-01T03:50:18;7.32;;;3.30;;
73919;SDS011;62266;53.348;-1.496;2023-03-01T03:52:44;6.03;;;2.73;;
73919;SDS011;62266;53.348;-1.496;2023-03-01T03:55:10;5.82;;;3.20;;
73919;SDS011;62266;53.348;-1.496;2023-03-01T03:57:37;6.07;;;3.00;;
73919;SDS011;62266;53.348;-1.496;2023-03-01T04:00:04;5.82;;;3.35;;
73919;SDS011;62266;53.348;-1.496;2023-03-01T04:02:30;6.63;;;3.58;;
73919;SDS011;62266;53.348;-1.496;2023-03-01T04:04:56;6.97;;;3.60;;
73919;SDS011;62266;53.348;-1.496;2023-03-01T04:07:22;10.15;;;3.75;;
73919;SDS011;62266;53.348;-1.496;2023-03-01T04:09:47;9.30;;;4.67;;
73919;SDS011;62266;53.348;-1.496;2023-03-01T04:12:12;8.47;;;3.90;;
73919;SDS011;62266;53.348;-1.496;2023-03-01T04:14:38;10.90;;;4.50;;
73919;SDS011;62266;53.348;-1.496;2023-03-01T04:17:03;9.37;;;4.43;;
73919;SDS011;62266;53.348;-1.496;2023-03-01T04:19:31;9.05;;;3.50;;
73919;SDS011;62266;53.348;-1.496;2023-03-01T04:22:01;7.93;;;3.60;;
73919;SDS011;62266;53.348;-1.496;2023-03-01T04:24:34;7.57;;;3.53;;
73919;SDS011;62266;53.348;-1.496;2023-03-01T04:27:00;6.97;;;3.47;;
73919;SDS011;62266;53.348;-1.496;2023-03-01T04:29:26;5.88;;;2.90;;
73919;SDS011;62266;53.348;-1.496;2023-03-01T04:31:51;6.40;;;2.97;;
73919;SDS011;62266;53.348;-1.496;2023-03-01T04:34:17;5.88;;;2.78;;
73919;SDS011;62266;53.348;-1.496;2023-03-01T04:36:43;5.90;;;2.60;;
73919;SDS011;62266;53.348;-1.496;2023-03-01T04:39:08;5.97;;;3.10;;
73919;SDS011;62266;53.348;-1.496;2023-03-01T04:41:37;5.33;;;2.73;;
73919;SDS011;62266;53.348;-1.496;2023-03-01T04:44:08;6.70;;;3.20;;
73919;SDS011;62266;53.348;-1.496;2023-03-01T04:46:34;6.15;;;3.17;;
73919;SDS011;62266;53.348;-1.496;2023-03-01T04:49:00;8.98;;;3.92;;
73919;SDS011;62266;53.348;-1.496;2023-03-01T04:51:26;9.60;;;3.83;;
73919;SDS011;62266;53.348;-1.496;2023-03-01T04:53:51;9.17;;;4.00;;
73919;SDS011;62266;53.348;-1.496;2023-03-01T04:56:17;9.67;;;4.37;;
73919;SDS011;62266;53.348;-1.496;2023-03-01T04:58:43;9.50;;;4.53;;
73919;SDS011;62266;53.348;-1.496;2023-03-01T05:01:13;8.20;;;4.07;;
73919;SDS011;62266;53.348;-1.496;2023-03-01T05:03:40;8.10;;;3.37;;
73919;SDS011;62266;53.348;-1.496;2023-03-01T05:06:07;7.93;;;3.50;;
73919;SDS011;62266;53.348;-1.496;2023-03-01T05:08:32;8.57;;;3.87;;
73919;SDS011;62266;53.348;-1.496;2023-03-01T05:10:59;8.48;;;4.43;;
73919;SDS011;62266;53.348;-1.496;2023-03-01T05:13:24;8.93;;;4.03;;
73919;SDS011;62266;53.348;-1.496;2023-03-01T05:15:54;8.77;;;4.40;;
73919;SDS011;62266;53.348;-1.496;2023-03-01T05:18:20;9.75;;;4.80;;
73919;SDS011;62266;53.348;-1.496;2023-03-01T05:20:46;9.83;;;4.70;;
73919;SDS011;62266;53.348;-1.496;2023-03-01T05:23:12;8.88;;;4.10;;
73919;SDS011;62266;53.348;-1.496;2023-03-01T05:25:37;10.10;;;4.93;;
73919;SDS011;62266;53.348;-1.496;2023-03-01T05:28:05;13.05;;;5.20;;
73919;SDS011;62266;53.348;-1.496;2023-03-01T05:30:32;8.82;;;4.40;;
73919;SDS011;62266;53.348;-1.496;2023-03-01T05:32:58;10.82;;;5.18;;
73919;SDS011;62266;53.348;-1.496;2023-03-01T05:35:24;11.80;;;5.00;;
73919;SDS011;62266;53.348;-1.496;2023-03-01T05:37:50;11.30;;;4.50;;
73919;SDS011;62266;53.348;-1.496;2023-03-01T05:40:20;8.50;;;4.07;;
73919;SDS011;62266;53.348;-1.496;2023-03-01T05:42:51;8.05;;;3.78;;
73919;SDS011;62266;53.348;-1.496;2023-03-01T05:45:21;8.45;;;3.85;;
73919;SDS011;62266;53.348;-1.496;2023-03-01T05:47:48;9.07;;;4.13;;
73919;SDS011;62266;53.348;-1.496;2023-03-01T05:50:15;7.25;;;3.58;;
73919;SDS011;62266;53.348;-1.496;2023-03-01T05:52:44;8.33;;;3.53;;
73919;SDS011;62266;53.348;-1.496;2023-03-01T05:55:11;7.47;;;3.40;;
73919;SDS011;62266;53.348;-1.496;2023-03-01T05:57:36;7.53;;;3.50;;
73919;SDS011;62266;53.348;-1.496;2023-03-01T06:00:02;7.53;;;3.27;;
73919;SDS011;62266;53.348;-1.496;2023-03-01T06:02:28;7.25;;;2.97;;
73919;SDS011;62266;53.348;-1.496;2023-03-01T06:04:54;7.03;;;2.50;;
73919;SDS011;62266;53.348;-1.496;2023-03-01T06:07:20;6.53;;;3.10;;
73919;SDS011;62266;53.348;-1.496;2023-03-01T06:09:46;8.07;;;3.05;;
73919;SDS011;62266;53.348;-1.496;2023-03-01T06:12:11;7.57;;;3.17;;
73919;SDS011;62266;53.348;-1.496;2023-03-01T06:14:37;10.70;;;3.47;;
73919;SDS011;62266;53.348;-1.496;2023-03-01T06:17:03;6.80;;;3.08;;
73919;SDS011;62266;53.348;-1.496;2023-03-01T06:19:28;7.73;;;2.97;;
73919;SDS011;62266;53.348;-1.496;2023-03-01T06:21:53;7.15;;;3.42;;
73919;SDS011;62266;53.348;-1.496;2023-03-01T06:24:19;7.27;;;3.00;;
73919;SDS011;62266;53.348;-1.496;2023-03-01T06:26:44;9.70;;;3.13;;
73919;SDS011;62266;53.348;-1.496;2023-03-01T06:29:10;7.80;;;3.45;;
73919;SDS011;62266;53.348;-1.496;2023-03-01T06:31:35;6.10;;;3.27;;
73919;SDS011;62266;53.348;-1.496;2023-03-01T06:34:01;8.53;;;3.23;;
73919;SDS011;62266;53.348;-1.496;2023-03-01T06:36:27;6.75;;;3.28;;
73919;SDS011;62266;53.348;-1.496;2023-03-01T06:38:52;7.77;;;2.87;;
73919;SDS011;62266;53.348;-1.496;2023-03-01T06:41:18;8.25;;;3.22;;
73919;SDS011;62266;53.348;-1.496;2023-03-01T06:43:43;5.37;;;2.87;;
73919;SDS011;62266;53.348;-1.496;2023-03-01T06:46:09;6.77;;;2.87;;
73919;SDS011;62266;53.348;-1.496;2023-03-01T06:48:34;7.43;;;2.50;;
73919;SDS011;62266;53.348;-1.496;2023-03-01T06:51:00;8.57;;;3.37;;
73919;SDS011;62266;53.348;-1.496;2023-03-01T06:53:26;9.10;;;3.53;;
73919;SDS011;62266;53.348;-1.496;2023-03-01T06:55:56;11.38;;;4.57;;
73919;SDS011;62266;53.348;-1.496;2023-03-01T06:58:22;12.88;;;4.88;;
73919;SDS011;62266;53.348;-1.496;2023-03-01T07:00:47;8.33;;;4.27;;
73919;SDS011;62266;53.348;-1.496;2023-03-01T07:03:13;8.23;;;4.15;;
73919;SDS011;62266;53.348;-1.496;2023-03-01T07:05:38;8.50;;;4.53;;
73919;SDS011;62266;53.348;-1.496;2023-03-01T07:08:04;8.73;;;4.10;;
73919;SDS011;62266;53.348;-1.496;2023-03-01T07:10:29;9.73;;;4.05;;
73919;SDS011;62266;53.348;-1.496;2023-03-01T07:12:58;7.00;;;3.37;;
73919;SDS011;62266;53.348;-1.496;2023-03-01T07:15:25;8.07;;;3.97;;
73919;SDS011;62266;53.348;-1.496;2023-03-01T07:17:51;4.75;;;2.78;;
73919;SDS011;62266;53.348;-1.496;2023-03-01T07:20:17;6.57;;;3.30;;
73919;SDS011;62266;53.348;-1.496;2023-03-01T07:22:44;9.63;;;3.65;;
73919;SDS011;62266;53.348;-1.496;2023-03-01T07:25:09;8.40;;;3.93;;
73919;SDS011;62266;53.348;-1.496;2023-03-01T07:27:35;8.98;;;2.95;;
73919;SDS011;62266;53.348;-1.496;2023-03-01T07:30:01;7.25;;;3.20;;
73919;SDS011;62266;53.348;-1.496;2023-03-01T07:32:26;6.43;;;3.10;;
73919;SDS011;62266;53.348;-1.496;2023-03-01T07:34:52;5.43;;;3.00;;
73919;SDS011;62266;53.348;-1.496;2023-03-01T07:37:17;5.87;;;3.03;;
73919;SDS011;62266;53.348;-1.496;2023-03-01T07:39:43;6.97;;;3.40;;
73919;SDS011;62266;53.348;-1.496;2023-03-01T07:42:08;7.30;;;2.90;;
73919;SDS011;62266;53.348;-1.496;2023-03-01T07:44:34;6.03;;;3.03;;
73919;SDS011;62266;53.348;-1.496;2023-03-01T07:46:59;10.05;;;3.67;;
73919;SDS011;62266;53.348;-1.496;2023-03-01T07:49:25;8.03;;;3.83;;
73919;SDS011;62266;53.348;-1.496;2023-03-01T07:51:53;7.35;;;4.05;;
73919;SDS011;62266;53.348;-1.496;2023-03-01T07:54:19;9.27;;;4.13;;
73919;SDS011;62266;53.348;-1.496;2023-03-01T07:56:44;8.52;;;4.25;;
73919;SDS011;62266;53.348;-1.496;2023-03-01T07:59:10;7.03;;;4.37;;
73919;SDS011;62266;53.348;-1.496;2023-03-01T08:01:35;8.53;;;4.40;;
73919;SDS011;62266;53.348;-1.496;2023-03-01T08:04:01;9.67;;;3.70;;
73919;SDS011;62266;53.348;-1.496;2023-03-01T08:06:26;8.27;;;4.03;;
73919;SDS011;62266;53.348;-1.496;2023-03-01T08:08:52;10.52;;;3.92;;
73919;SDS011;62266;53.348;-1.496;2023-03-01T08:19:27;4.33;;;3.17;;
73919;SDS011;62266;53.348;-1.496;2023-03-01T08:24:38;4.45;;;2.88;;
73919;SDS011;62266;53.348;-1.496;2023-03-01T08:27:07;6.88;;;3.00;;
73919;SDS011;62266;53.348;-1.496;2023-03-01T08:29:35;7.68;;;2.90;;
73919;SDS011;62266;53.348;-1.496;2023-03-01T08:32:00;4.77;;;3.13;;
73919;SDS011;62266;53.348;-1.496;2023-03-01T08:34:27;8.32;;;3.10;;
73919;SDS011;62266;53.348;-1.496;2023-03-01T08:36:53;6.18;;;3.38;;
73919;SDS011;62266;53.348;-1.496;2023-03-01T08:39:22;7.93;;;3.50;;
73919;SDS011;62266;53.348;-1.496;2023-03-01T08:41:47;8.68;;;3.17;;
73919;SDS011;62266;53.348;-1.496;2023-03-01T08:44:13;6.23;;;2.97;;
73919;SDS011;62266;53.348;-1.496;2023-03-01T08:46:40;7.03;;;3.15;;
73919;SDS011;62266;53.348;-1.496;2023-03-01T08:49:06;6.38;;;2.38;;
73919;SDS011;62266;53.348;-1.496;2023-03-01T08:51:33;5.57;;;2.60;;
73919;SDS011;62266;53.348;-1.496;2023-03-01T08:54:05;5.00;;;2.30;;
73919;SDS011;62266;53.348;-1.496;2023-03-01T08:56:32;5.70;;;2.17;;
73919;SDS011;62266;53.348;-1.496;2023-03-01T08:58:58;5.13;;;1.77;;
73919;SDS011;62266;53.348;-1.496;2023-03-01T09:01:23;4.30;;;1.63;;
73919;SDS011;62266;53.348;-1.496;2023-03-01T09:03:48;2.83;;;1.57;;
73919;SDS011;62266;53.348;-1.496;2023-03-01T09:06:14;3.53;;;1.77;;
73919;SDS011;62266;53.348;-1.496;2023-03-01T09:08:44;5.97;;;1.80;;
73919;SDS011;62266;53.348;-1.496;2023-03-01T09:11:12;6.60;;;1.80;;
73919;SDS011;62266;53.348;-1.496;2023-03-01T09:13:40;7.18;;;2.38;;
73919;SDS011;62266;53.348;-1.496;2023-03-01T09:16:06;3.73;;;2.20;;
73919;SDS011;62266;53.348;-1.496;2023-03-01T09:18:33;6.93;;;2.40;;
73919;SDS011;62266;53.348;-1.496;2023-03-01T09:23:32;4.60;;;2.45;;
73919;SDS011;62266;53.348;-1.496;2023-03-01T09:26:25;5.57;;;2.58;;
73919;SDS011;62266;53.348;-1.496;2023-03-01T09:28:51;7.67;;;2.30;;
73919;SDS011;62266;53.348;-1.496;2023-03-01T09:31:18;4.43;;;2.13;;
73919;SDS011;62266;53.348;-1.496;2023-03-01T09:33:48;6.43;;;3.15;;
73919;SDS011;62266;53.348;-1.496;2023-03-01T09:36:16;3.35;;;1.88;;
73919;SDS011;62266;53.348;-1.496;2023-03-01T09:38:43;6.43;;;2.38;;
73919;SDS011;62266;53.348;-1.496;2023-03-01T09:43:57;4.45;;;1.77;;
73919;SDS011;62266;53.348;-1.496;2023-03-01T09:46:26;4.85;;;2.50;;
73919;SDS011;62266;53.348;-1.496;2023-03-01T09:48:59;5.13;;;2.25;;
73919;SDS011;62266;53.348;-1.496;2023-03-01T09:51:30;6.90;;;2.80;;
73919;SDS011;62266;53.348;-1.496;2023-03-01T09:53:57;7.87;;;2.67;;
73919;SDS011;62266;53.348;-1.496;2023-03-01T10:07:31;7.50;;;2.70;;
73919;SDS011;62266;53.348;-1.496;2023-03-01T10:09:58;8.10;;;3.00;;
73919;SDS011;62266;53.348;-1.496;2023-03-01T10:12:26;5.70;;;2.40;;
73919;SDS011;62266;53.348;-1.496;2023-03-01T10:15:04;4.13;;;2.10;;
73919;SDS011;62266;53.348;-1.496;2023-03-01T10:17:43;5.75;;;1.98;;
73919;SDS011;62266;53.348;-1.496;2023-03-01T10:23:11;7.32;;;2.22;;
73919;SDS011;62266;53.348;-1.496;2023-03-01T10:31:14;6.22;;;2.33;;
73919;SDS011;62266;53.348;-1.496;2023-03-01T10:33:40;4.15;;;2.67;;
73919;SDS011;62266;53.348;-1.496;2023-03-01T10:36:06;8.60;;;2.17;;
73919;SDS011;62266;53.348;-1.496;2023-03-01T10:38:47;6.95;;;2.10;;
73919;SDS011;62266;53.348;-1.496;2023-03-01T10:41:19;7.00;;;2.50;;
73919;SDS011;62266;53.348;-1.496;2023-03-01T10:43:57;5.68;;;2.30;;
73919;SDS011;62266;53.348;-1.496;2023-03-01T10:46:26;5.93;;;1.90;;
73919;SDS011;62266;53.348;-1.496;2023-03-01T10:51:51;4.90;;;1.90;;
73919;SDS011;62266;53.348;-1.496;2023-03-01T10:56:53;5.57;;;1.63;;
73919;SDS011;62266;53.348;-1.496;2023-03-01T10:59:28;3.83;;;1.60;;
73919;SDS011;62266;53.348;-1.496;2023-03-01T11:02:04;5.55;;;1.70;;
73919;SDS011;62266;53.348;-1.496;2023-03-01T11:04:59;6.15;;;1.88;;
73919;SDS011;62266;53.348;-1.496;2023-03-01T11:07:47;4.10;;;2.22;;
73919;SDS011;62266;53.348;-1.496;2023-03-01T11:10:15;5.18;;;1.80;;
73919;SDS011;62266;53.348;-1.496;2023-03-01T11:12:42;5.57;;;1.70;;
73919;SDS011;62266;53.348;-1.496;2023-03-01T11:15:08;2.80;;;1.42;;
73919;SDS011;62266;53.348;-1.496;2023-03-01T11:17:45;4.55;;;1.98;;
73919;SDS011;62266;53.348;-1.496;2023-03-01T11:25:19;5.93;;;1.53;;
73919;SDS011;62266;53.348;-1.496;2023-03-01T11:27:49;4.55;;;1.70;;
73919;SDS011;62266;53.348;-1.496;2023-03-01T11:30:25;4.60;;;2.80;;
73919;SDS011;62266;53.348;-1.496;2023-03-01T11:35:34;5.57;;;1.90;;
73919;SDS011;62266;53.348;-1.496;2023-03-01T11:40:47;2.88;;;1.55;;
73919;SDS011;62266;53.348;-1.496;2023-03-01T11:43:27;5.30;;;1.67;;
73919;SDS011;62266;53.348;-1.496;2023-03-01T11:46:11;5.30;;;1.30;;
73919;SDS011;62266;53.348;-1.496;2023-03-01T11:48:51;4.95;;;1.52;;
73919;SDS011;62266;53.348;-1.496;2023-03-01T11:57:00;6.20;;;2.00;;
73919;SDS011;62266;53.348;-1.496;2023-03-01T12:09:01;5.82;;;1.55;;
73919;SDS011;62266;53.348;-1.496;2023-03-01T12:25:37;4.57;;;1.02;;
73919;SDS011;62266;53.348;-1.496;2023-03-01T12:39:12;7.07;;;1.73;;
73919;SDS011;62266;53.348;-1.496;2023-03-01T12:44:44;3.80;;;1.30;;
73919;SDS011;62266;53.348;-1.496;2023-03-01T12:47:30;4.13;;;1.20;;
73919;SDS011;62266;53.348;-1.496;2023-03-01T12:52:48;6.00;;;1.30;;
73919;SDS011;62266;53.348;-1.496;2023-03-01T12:55:30;3.27;;;0.70;;
73919;SDS011;62266;53.348;-1.496;2023-03-01T13:08:48;7.87;;;1.13;;
73919;SDS011;62266;53.348;-1.496;2023-03-01T13:11:23;3.85;;;0.82;;
73919;SDS011;62266;53.348;-1.496;2023-03-01T13:13:48;2.58;;;1.20;;
73919;SDS011;62266;53.348;-1.496;2023-03-01T13:21:56;4.87;;;1.10;;
73919;SDS011;62266;53.348;-1.496;2023-03-01T13:29:43;3.22;;;1.10;;
73919;SDS011;62266;53.348;-1.496;2023-03-01T13:34:54;3.15;;;1.05;;
73919;SDS011;62266;53.348;-1.496;2023-03-01T13:37:24;5.50;;;1.02;;
73919;SDS011;62266;53.348;-1.496;2023-03-01T13:39:55;4.60;;;1.37;;
73919;SDS011;62266;53.348;-1.496;2023-03-01T13:42:39;3.28;;;1.00;;
73919;SDS011;62266;53.348;-1.496;2023-03-01T13:45:17;7.53;;;1.90;;
73919;SDS011;62266;53.348;-1.496;2023-03-01T13:47:43;3.70;;;1.20;;
73919;SDS011;62266;53.348;-1.496;2023-03-01T13:50:22;4.03;;;1.20;;
73919;SDS011;62266;53.348;-1.496;2023-03-01T13:53:04;3.30;;;0.87;;
73919;SDS011;62266;53.348;-1.496;2023-03-01T13:55:40;3.05;;;0.60;;
73919;SDS011;62266;53.348;-1.496;2023-03-01T13:58:21;2.80;;;0.52;;
73919;SDS011;62266;53.348;-1.496;2023-03-01T14:06:03;3.60;;;0.90;;
73919;SDS011;62266;53.348;-1.496;2023-03-01T14:08:41;3.83;;;1.10;;
73919;SDS011;62266;53.348;-1.496;2023-03-01T14:19:28;5.65;;;1.08;;
73919;SDS011;62266;53.348;-1.496;2023-03-01T14:24:51;5.22;;;1.42;;
73919;SDS011;62266;53.348;-1.496;2023-03-01T14:27:19;3.33;;;0.90;;
73919;SDS011;62266;53.348;-1.496;2023-03-01T14:29:55;3.20;;;1.17;;
73919;SDS011;62266;53.348;-1.496;2023-03-01T14:32:27;2.70;;;1.10;;
73919;SDS011;62266;53.348;-1.496;2023-03-01T14:34:54;3.78;;;1.15;;
73919;SDS011;62266;53.348;-1.496;2023-03-01T14:37:31;6.20;;;1.50;;
73919;SDS011;62266;53.348;-1.496;2023-03-01T14:39:59;3.83;;;1.20;;
73919;SDS011;62266;53.348;-1.496;2023-03-01T14:42:29;4.55;;;1.30;;
73919;SDS011;62266;53.348;-1.496;2023-03-01T14:45:00;4.13;;;1.20;;
73919;SDS011;62266;53.348;-1.496;2023-03-01T14:47:28;3.47;;;1.13;;
73919;SDS011;62266;53.348;-1.496;2023-03-01T14:49:59;5.50;;;0.93;;
73919;SDS011;62266;53.348;-1.496;2023-03-01T14:52:35;4.32;;;1.42;;
73919;SDS011;62266;53.348;-1.496;2023-03-01T14:55:06;3.22;;;1.38;;
73919;SDS011;62266;53.348;-1.496;2023-03-01T14:57:49;2.65;;;1.27;;
73919;SDS011;62266;53.348;-1.496;2023-03-01T15:00:28;4.53;;;1.70;;
73919;SDS011;62266;53.348;-1.496;2023-03-01T15:02:55;3.70;;;1.50;;
73919;SDS011;62266;53.348;-1.496;2023-03-01T15:05:24;1.88;;;0.93;;
73919;SDS011;62266;53.348;-1.496;2023-03-01T15:08:00;2.90;;;1.30;;
73919;SDS011;62266;53.348;-1.496;2023-03-01T15:10:30;3.20;;;0.90;;
73919;SDS011;62266;53.348;-1.496;2023-03-01T15:13:40;3.50;;;0.90;;
73919;SDS011;62266;53.348;-1.496;2023-03-01T15:15:47;3.27;;;0.70;;
73919;SDS011;62266;53.348;-1.496;2023-03-01T15:18:27;4.03;;;1.10;;
73919;SDS011;62266;53.348;-1.496;2023-03-01T15:20:54;4.82;;;1.00;;
73919;SDS011;62266;53.348;-1.496;2023-03-01T15:23:22;3.25;;;0.98;;
73919;SDS011;62266;53.348;-1.496;2023-03-01T15:25:48;5.72;;;1.30;;
73919;SDS011;62266;53.348;-1.496;2023-03-01T15:28:25;3.60;;;1.37;;
73919;SDS011;62266;53.348;-1.496;2023-03-01T15:33:47;3.58;;;1.00;;
73919;SDS011;62266;53.348;-1.496;2023-03-01T15:36:30;6.90;;;2.28;;
73919;SDS011;62266;53.348;-1.496;2023-03-01T15:38:56;3.65;;;0.88;;
73919;SDS011;62266;53.348;-1.496;2023-03-01T15:43:56;2.75;;;1.05;;
73919;SDS011;62266;53.348;-1.496;2023-03-01T15:46:32;2.92;;;0.80;;
73919;SDS011;62266;53.348;-1.496;2023-03-01T15:49:00;3.65;;;1.38;;
73919;SDS011;62266;53.348;-1.496;2023-03-01T15:51:30;3.13;;;1.00;;
73919;SDS011;62266;53.348;-1.496;2023-03-01T15:53:58;2.93;;;0.60;;
73919;SDS011;62266;53.348;-1.496;2023-03-01T15:56:25;5.03;;;1.20;;
73919;SDS011;62266;53.348;-1.496;2023-03-01T15:58:51;6.85;;;1.52;;
73919;SDS011;62266;53.348;-1.496;2023-03-01T16:01:17;7.20;;;1.60;;
73919;SDS011;62266;53.348;-1.496;2023-03-01T16:03:43;5.35;;;2.00;;
73919;SDS011;62266;53.348;-1.496;2023-03-01T16:06:09;4.53;;;1.90;;
73919;SDS011;62266;53.348;-1.496;2023-03-01T16:08:36;5.60;;;2.10;;
73919;SDS011;62266;53.348;-1.496;2023-03-01T16:11:08;5.25;;;2.60;;
73919;SDS011;62266;53.348;-1.496;2023-03-01T16:13:39;3.30;;;1.42;;
73919;SDS011;62266;53.348;-1.496;2023-03-01T16:16:05;3.70;;;1.05;;
73919;SDS011;62266;53.348;-1.496;2023-03-01T16:18:31;4.18;;;1.48;;
73919;SDS011;62266;53.348;-1.496;2023-03-01T16:20:56;3.40;;;1.07;;
73919;SDS011;62266;53.348;-1.496;2023-03-01T16:23:22;2.57;;;0.80;;
73919;SDS011;62266;53.348;-1.496;2023-03-01T16:25:50;4.05;;;1.10;;
73919;SDS011;62266;53.348;-1.496;2023-03-01T16:28:16;4.50;;;1.27;;
73919;SDS011;62266;53.348;-1.496;2023-03-01T16:30:45;2.70;;;1.00;;
73919;SDS011;62266;53.348;-1.496;2023-03-01T16:33:12;2.85;;;1.27;;
73919;SDS011;62266;53.348;-1.496;2023-03-01T16:35:40;3.93;;;1.00;;
73919;SDS011;62266;53.348;-1.496;2023-03-01T16:38:06;3.00;;;1.45;;
73919;SDS011;62266;53.348;-1.496;2023-03-01T16:40:32;6.00;;;1.30;;
73919;SDS011;62266;53.348;-1.496;2023-03-01T16:42:58;4.40;;;0.93;;
73919;SDS011;62266;53.348;-1.496;2023-03-01T16:45:27;4.18;;;1.00;;
73919;SDS011;62266;53.348;-1.496;2023-03-01T16:47:53;8.07;;;1.15;;
73919;SDS011;62266;53.348;-1.496;2023-03-01T16:50:19;2.67;;;0.87;;
73919;SDS011;62266;53.348;-1.496;2023-03-01T16:52:45;7.50;;;1.13;;
73919;SDS011;62266;53.348;-1.496;2023-03-01T16:55:10;2.53;;;0.97;;
73919;SDS011;62266;53.348;-1.496;2023-03-01T16:57:37;4.50;;;1.50;;
73919;SDS011;62266;53.348;-1.496;2023-03-01T17:00:13;5.15;;;1.55;;
73919;SDS011;62266;53.348;-1.496;2023-03-01T17:02:39;4.17;;;1.43;;
73919;SDS011;62266;53.348;-1.496;2023-03-01T17:05:07;5.25;;;1.20;;
73919;SDS011;62266;53.348;-1.496;2023-03-01T17:07:33;5.60;;;1.73;;
73919;SDS011;62266;53.348;-1.496;2023-03-01T17:10:01;7.57;;;1.90;;
73919;SDS011;62266;53.348;-1.496;2023-03-01T17:12:28;5.10;;;1.77;;
73919;SDS011;62266;53.348;-1.496;2023-03-01T17:14:54;3.73;;;1.70;;
73919;SDS011;62266;53.348;-1.496;2023-03-01T17:17:20;5.28;;;1.50;;
73919;SDS011;62266;53.348;-1.496;2023-03-01T17:19:46;4.93;;;2.00;;
73919;SDS011;62266;53.348;-1.496;2023-03-01T17:22:12;5.87;;;1.90;;